Wetterdaten: Woche 08.10.12 - 14.10.12 (KW41)
Datum Zeit Temp. A. Feuchte A. Luftdruck Regen Wind Richtung Taupunkt Windchill Windben
08.10.2012 00:00 10,2 C 67 % 1019,7 hPa 0,0 l/m 8,1 km/h N 4,3 C 9,0 C 24,1 km/h
08.10.2012 01:00 10,0 C 67 % 1020,3 hPa 0,0 l/m 8,9 km/h N 4,1 C 8,3 C 21,7 km/h
08.10.2012 02:00 9,7 C 67 % 1020,7 hPa 0,0 l/m 7,3 km/h N 3,8 C 9,0 C 22,1 km/h
08.10.2012 03:00 9,3 C 66 % 1021,0 hPa 0,0 l/m 5,9 km/h N 3,3 C 9,1 C 14,9 km/h
08.10.2012 04:00 9,2 C 65 % 1021,1 hPa 0,0 l/m 6,2 km/h N 3,0 C 8,9 C 17,3 km/h
08.10.2012 05:00 9,3 C 67 % 1021,3 hPa 0,0 l/m 7,4 km/h N 3,4 C 8,5 C 20,1 km/h
08.10.2012 06:00 8,9 C 70 % 1021,6 hPa 0,0 l/m 5,3 km/h N 3,7 C 8,1 C 16,9 km/h
08.10.2012 07:00 8,6 C 75 % 1021,9 hPa 0,0 l/m 3,4 km/h N 4,4 C 8,6 C 14,1 km/h
08.10.2012 08:00 9,5 C 70 % 1022,1 hPa 0,0 l/m 4,9 km/h N 4,2 C 9,5 C 14,5 km/h
08.10.2012 09:00 10,6 C 66 % 1022,2 hPa 0,0 l/m 6,9 km/h N 4,5 C 9,9 C 21,7 km/h
08.10.2012 10:00 12,0 C 62 % 1022,1 hPa 0,0 l/m 7,6 km/h N 4,9 C 11,2 C 20,1 km/h
08.10.2012 11:00 12,9 C 55 % 1021,9 hPa 0,0 l/m 8,3 km/h N 4,0 C 11,8 C 21,3 km/h
08.10.2012 12:00 13,6 C 48 % 1021,5 hPa 0,0 l/m 8,6 km/h N 2,8 C 12,3 C 22,9 km/h
08.10.2012 13:00 14,6 C 49 % 1020,7 hPa 0,0 l/m 6,0 km/h N 3,9 C 14,5 C 17,3 km/h
08.10.2012 14:00 14,5 C 50 % 1020,1 hPa 0,0 l/m 6,2 km/h N 4,2 C 14,1 C 17,7 km/h
08.10.2012 15:00 14,3 C 49 % 1019,2 hPa 0,0 l/m 5,4 km/h N 3,6 C 14,3 C 17,7 km/h
08.10.2012 16:00 14,0 C 49 % 1018,5 hPa 0,0 l/m 4,0 km/h N 3,5 C 14,0 C 12,9 km/h
08.10.2012 17:00 13,6 C 52 % 1018,2 hPa 0,0 l/m 1,8 km/h N 3,8 C 13,6 C 7,2 km/h
08.10.2012 18:00 12,1 C 59 % 1018,2 hPa 0,0 l/m 0,0 km/h N 4,3 C 12,1 C 0,0 km/h
08.10.2012 19:00 9,2 C 70 % 1018,5 hPa 0,0 l/m 0,0 km/h N 4,0 C 9,2 C 0,4 km/h
08.10.2012 20:00 7,0 C 76 % 1018,2 hPa 0,0 l/m 0,0 km/h N 3,0 C 7,0 C 0,0 km/h
08.10.2012 21:00 5,7 C 80 % 1017,8 hPa 0,0 l/m 0,0 km/h N 2,5 C 5,7 C 0,0 km/h
08.10.2012 22:00 4,7 C 83 % 1017,4 hPa 0,0 l/m 0,0 km/h N 2,0 C 4,7 C 0,0 km/h
08.10.2012 23:00 4,1 C 84 % 1016,7 hPa 0,0 l/m 0,0 km/h N 1,6 C 4,1 C 0,0 km/h
09.10.2012 00:00 4,1 C 84 % 1015,7 hPa 0,0 l/m 0,0 km/h N 1,6 C 4,1 C 0,0 km/h
09.10.2012 01:00 4,5 C 83 % 1014,9 hPa 0,0 l/m 0,0 km/h N 1,8 C 4,5 C 0,0 km/h
09.10.2012 02:00 4,4 C 83 % 1014,0 hPa 0,0 l/m 0,0 km/h N 1,7 C 4,4 C 0,0 km/h
09.10.2012 03:00 4,1 C 83 % 1013,2 hPa 0,0 l/m 0,0 km/h N 1,4 C 4,1 C 0,0 km/h
09.10.2012 04:00 4,3 C 82 % 1012,4 hPa 0,0 l/m 0,0 km/h N 1,5 C 4,3 C 0,0 km/h
09.10.2012 05:00 4,3 C 82 % 1012,0 hPa 0,0 l/m 0,0 km/h N 1,5 C 4,3 C 0,0 km/h
09.10.2012 06:00 4,5 C 81 % 1011,4 hPa 0,0 l/m 0,0 km/h N 1,5 C 4,5 C 0,0 km/h
09.10.2012 07:00 4,6 C 81 % 1011,2 hPa 0,0 l/m 0,0 km/h N 1,6 C 4,6 C 0,0 km/h
09.10.2012 08:00 5,9 C 80 % 1011,1 hPa 0,0 l/m 0,3 km/h N 2,7 C 5,9 C 3,6 km/h
09.10.2012 09:00 7,3 C 81 % 1011,0 hPa 0,0 l/m 0,3 km/h N 4,3 C 7,3 C 4,4 km/h
09.10.2012 10:00 8,7 C 83 % 1010,9 hPa 0,0 l/m 0,8 km/h N 6,0 C 8,7 C 4,8 km/h
09.10.2012 11:00 10,4 C 77 % 1010,9 hPa 0,0 l/m 1,1 km/h N 6,5 C 10,4 C 6,0 km/h
09.10.2012 12:00 11,5 C 73 % 1010,8 hPa 0,0 l/m 0,9 km/h N 6,7 C 11,5 C 6,0 km/h
09.10.2012 13:00 12,4 C 70 % 1010,2 hPa 0,0 l/m 0,9 km/h N 7,1 C 12,4 C 6,4 km/h
09.10.2012 14:00 13,2 C 70 % 1010,0 hPa 0,0 l/m 0,8 km/h N 7,7 C 13,2 C 5,6 km/h
09.10.2012 15:00 13,8 C 69 % 1009,8 hPa 0,0 l/m 0,3 km/h N 8,3 C 13,8 C 2,4 km/h
09.10.2012 16:00 14,3 C 69 % 1009,7 hPa 0,0 l/m 1,9 km/h N 8,6 C 14,3 C 6,4 km/h
09.10.2012 17:00 14,1 C 72 % 1009,6 hPa 0,0 l/m 0,5 km/h N 9,1 C 14,1 C 5,2 km/h
09.10.2012 18:00 13,9 C 74 % 1009,7 hPa 0,0 l/m 0,1 km/h N 9,2 C 13,9 C 2,0 km/h
09.10.2012 19:00 13,2 C 79 % 1010,6 hPa 0,0 l/m 0,4 km/h N 9,7 C 13,2 C 4,8 km/h
09.10.2012 20:00 13,8 C 80 % 1011,4 hPa 0,0 l/m 7,0 km/h N 10,4 C 13,2 C 17,7 km/h
09.10.2012 21:00 13,3 C 81 % 1012,3 hPa 0,0 l/m 4,2 km/h N 10,0 C 13,3 C 13,7 km/h
09.10.2012 22:00 12,4 C 80 % 1013,3 hPa 0,0 l/m 4,6 km/h N 9,0 C 12,4 C 12,9 km/h
09.10.2012 23:00 11,4 C 73 % 1013,7 hPa 0,0 l/m 1,9 km/h N 6,7 C 11,4 C 8,1 km/h
10.10.2012 00:00 11,1 C 72 % 1013,8 hPa 0,0 l/m 2,7 km/h N 6,3 C 11,1 C 11,3 km/h
10.10.2012 01:00 10,4 C 69 % 1014,1 hPa 0,0 l/m 2,9 km/h N 4,9 C 10,4 C 11,3 km/h
10.10.2012 02:00 9,2 C 69 % 1014,4 hPa 0,0 l/m 0,3 km/h N 3,7 C 9,2 C 4,0 km/h
10.10.2012 03:00 7,9 C 72 % 1014,4 hPa 0,0 l/m 0,5 km/h N 3,1 C 7,9 C 4,0 km/h
10.10.2012 04:00 7,1 C 74 % 1014,4 hPa 0,0 l/m 0,0 km/h N 2,8 C 7,1 C 1,2 km/h
10.10.2012 05:00 7,0 C 76 % 1014,6 hPa 0,0 l/m 0,2 km/h N 3,1 C 7,0 C 2,0 km/h
10.10.2012 06:00 6,8 C 76 % 1014,7 hPa 0,0 l/m 0,0 km/h N 2,8 C 6,8 C 1,2 km/h
10.10.2012 07:00 5,6 C 79 % 1015,0 hPa 0,0 l/m 0,0 km/h N 2,2 C 5,6 C 0,0 km/h
10.10.2012 08:00 5,6 C 83 % 1015,4 hPa 0,0 l/m 0,0 km/h N 2,9 C 5,6 C 0,0 km/h
10.10.2012 09:00 7,5 C 81 % 1015,4 hPa 0,0 l/m 0,0 km/h N 4,4 C 7,5 C 1,2 km/h
10.10.2012 10:00 9,8 C 68 % 1015,3 hPa 0,0 l/m 0,9 km/h N 4,2 C 9,8 C 6,0 km/h
10.10.2012 11:00 11,5 C 62 % 1015,0 hPa 0,0 l/m 1,7 km/h N 4,5 C 11,5 C 6,4 km/h
10.10.2012 12:00 13,3 C 55 % 1014,6 hPa 0,0 l/m 2,1 km/h N 4,4 C 13,3 C 8,4 km/h
10.10.2012 13:00 14,0 C 52 % 1014,0 hPa 0,0 l/m 2,9 km/h N 4,3 C 14,0 C 9,3 km/h
10.10.2012 14:00 12,8 C 56 % 1013,5 hPa 0,0 l/m 3,3 km/h N 4,2 C 12,8 C 9,3 km/h
10.10.2012 15:00 13,0 C 57 % 1013,0 hPa 0,0 l/m 4,4 km/h N 4,7 C 13,0 C 12,5 km/h
10.10.2012 16:00 12,6 C 59 % 1012,8 hPa 0,0 l/m 3,5 km/h N 4,7 C 12,6 C 10,9 km/h
10.10.2012 17:00 12,1 C 61 % 1012,8 hPa 0,0 l/m 1,0 km/h N 4,8 C 12,1 C 6,8 km/h
10.10.2012 18:00 11,7 C 64 % 1013,2 hPa 0,0 l/m 0,5 km/h N 5,0 C 11,7 C 5,2 km/h
10.10.2012 19:00 10,7 C 69 % 1013,6 hPa 0,0 l/m 0,0 km/h N 5,3 C 10,7 C 0,0 km/h
10.10.2012 20:00 9,9 C 76 % 1013,9 hPa 0,0 l/m 0,0 km/h N 5,9 C 9,9 C 0,0 km/h
10.10.2012 21:00 9,2 C 78 % 1014,0 hPa 0,0 l/m 0,0 km/h N 5,5 C 9,2 C 0,4 km/h
10.10.2012 22:00 8,2 C 79 % 1014,2 hPa 0,0 l/m 0,0 km/h N 4,7 C 8,2 C 0,0 km/h
10.10.2012 23:00 7,0 C 81 % 1014,5 hPa 0,0 l/m 0,0 km/h N 3,9 C 7,0 C 0,0 km/h
11.10.2012 00:00 5,8 C 83 % 1014,7 hPa 0,0 l/m 0,0 km/h N 3,1 C 5,8 C 0,0 km/h
11.10.2012 01:00 5,4 C 83 % 1015,0 hPa 0,0 l/m 0,0 km/h N 2,8 C 5,4 C 0,4 km/h
11.10.2012 02:00 6,9 C 81 % 1015,1 hPa 0,0 l/m 0,0 km/h N 3,9 C 6,9 C 2,0 km/h
11.10.2012 03:00 7,3 C 81 % 1015,1 hPa 0,0 l/m 0,4 km/h N 4,3 C 7,3 C 3,6 km/h
11.10.2012 04:00 7,1 C 84 % 1015,4 hPa 0,0 l/m 0,0 km/h N 4,6 C 7,1 C 1,2 km/h
11.10.2012 05:00 6,4 C 84 % 1015,7 hPa 0,0 l/m 0,1 km/h N 3,9 C 6,4 C 1,2 km/h
11.10.2012 06:00 6,1 C 84 % 1016,0 hPa 0,0 l/m 0,0 km/h N 3,6 C 6,1 C 0,0 km/h
11.10.2012 07:00 5,5 C 84 % 1016,2 hPa 0,0 l/m 0,0 km/h N 3,1 C 5,5 C 0,0 km/h
11.10.2012 08:00 5,8 C 83 % 1016,5 hPa 0,0 l/m 0,0 km/h N 3,1 C 5,8 C 0,0 km/h
11.10.2012 09:00 8,2 C 80 % 1016,7 hPa 0,0 l/m 1,0 km/h N 4,9 C 8,2 C 5,2 km/h
11.10.2012 10:00 11,3 C 66 % 1016,7 hPa 0,0 l/m 0,9 km/h N 5,1 C 11,3 C 5,6 km/h
11.10.2012 11:00 12,9 C 60 % 1016,5 hPa 0,0 l/m 1,8 km/h N 5,4 C 12,9 C 7,6 km/h
11.10.2012 12:00 13,4 C 57 % 1016,1 hPa 0,0 l/m 2,0 km/h N 4,9 C 13,4 C 10,5 km/h
11.10.2012 13:00 14,0 C 56 % 1015,3 hPa 0,0 l/m 2,8 km/h N 5,4 C 14,0 C 9,6 km/h
11.10.2012 14:00 14,0 C 55 % 1014,5 hPa 0,0 l/m 4,2 km/h N 5,0 C 14,0 C 14,9 km/h
11.10.2012 15:00 13,7 C 57 % 1014,0 hPa 0,0 l/m 4,6 km/h N 5,2 C 13,6 C 18,1 km/h
11.10.2012 16:00 13,0 C 59 % 1013,5 hPa 0,0 l/m 2,7 km/h N 5,3 C 13,0 C 10,1 km/h
11.10.2012 17:00 12,5 C 61 % 1013,4 hPa 0,0 l/m 1,0 km/h N 5,1 C 12,5 C 6,8 km/h
11.10.2012 18:00 11,5 C 63 % 1013,3 hPa 0,0 l/m 0,2 km/h N 4,6 C 11,5 C 4,4 km/h
11.10.2012 19:00 10,1 C 67 % 1013,2 hPa 0,0 l/m 0,2 km/h N 4,3 C 10,1 C 3,2 km/h
11.10.2012 20:00 9,1 C 70 % 1013,1 hPa 0,0 l/m 0,0 km/h N 3,9 C 9,1 C 0,4 km/h
11.10.2012 21:00 7,4 C 75 % 1013,2 hPa 0,0 l/m 0,0 km/h N 3,3 C 7,4 C 0,0 km/h
11.10.2012 22:00 5,8 C 80 % 1013,1 hPa 0,0 l/m 0,0 km/h N 2,5 C 5,8 C 0,0 km/h
11.10.2012 23:00 4,9 C 83 % 1012,8 hPa 0,0 l/m 0,0 km/h N 2,2 C 4,9 C 0,0 km/h
12.10.2012 00:00 4,4 C 84 % 1012,5 hPa 0,0 l/m 0,0 km/h N 1,9 C 4,4 C 0,0 km/h
12.10.2012 01:00 4,2 C 84 % 1012,3 hPa 0,0 l/m 0,0 km/h N 1,6 C 4,2 C 0,0 km/h
12.10.2012 02:00 4,1 C 83 % 1012,1 hPa 0,0 l/m 0,0 km/h N 1,4 C 4,1 C 0,0 km/h
12.10.2012 03:00 5,2 C 81 % 1011,9 hPa 0,0 l/m 0,0 km/h N 2,1 C 5,2 C 0,0 km/h
12.10.2012 04:00 6,7 C 80 % 1011,8 hPa 0,0 l/m 0,0 km/h N 3,4 C 6,7 C 0,0 km/h
12.10.2012 05:00 7,4 C 79 % 1011,8 hPa 0,0 l/m 0,0 km/h N 4,1 C 7,4 C 0,0 km/h
12.10.2012 06:00 8,2 C 79 % 1011,7 hPa 0,0 l/m 0,2 km/h N 4,8 C 8,2 C 2,8 km/h
12.10.2012 07:00 8,6 C 79 % 1011,9 hPa 0,0 l/m 1,0 km/h N 5,1 C 8,6 C 5,6 km/h
12.10.2012 08:00 8,8 C 80 % 1012,3 hPa 0,0 l/m 1,3 km/h N 5,6 C 8,8 C 6,0 km/h
12.10.2012 09:00 9,0 C 82 % 1012,8 hPa 0,0 l/m 2,1 km/h N 6,0 C 9,0 C 8,0 km/h
12.10.2012 10:00 9,7 C 83 % 1013,0 hPa 0,0 l/m 4,5 km/h N 6,9 C 9,7 C 11,3 km/h
12.10.2012 11:00 10,9 C 83 % 1012,9 hPa 0,0 l/m 4,3 km/h N 8,1 C 10,9 C 12,9 km/h
12.10.2012 12:00 11,4 C 83 % 1012,7 hPa 0,0 l/m 5,3 km/h N 8,6 C 11,4 C 16,1 km/h
12.10.2012 13:00 11,3 C 83 % 1012,4 hPa 0,0 l/m 5,8 km/h N 8,5 C 11,2 C 19,3 km/h
12.10.2012 14:00 11,4 C 83 % 1012,1 hPa 0,0 l/m 7,2 km/h N 8,6 C 10,7 C 20,1 km/h
12.10.2012 15:00 11,7 C 83 % 1011,8 hPa 0,0 l/m 7,6 km/h N 8,8 C 10,9 C 21,7 km/h
12.10.2012 16:00 11,9 C 82 % 1011,7 hPa 0,0 l/m 8,3 km/h N 8,9 C 10,6 C 23,3 km/h
12.10.2012 17:00 12,1 C 81 % 1011,9 hPa 0,0 l/m 7,0 km/h N 8,9 C 11,6 C 19,7 km/h
12.10.2012 18:00 12,0 C 82 % 1012,3 hPa 0,0 l/m 5,6 km/h N 9,0 C 12,0 C 16,5 km/h
12.10.2012 19:00 11,9 C 82 % 1012,7 hPa 0,0 l/m 3,8 km/h N 8,9 C 11,9 C 10,1 km/h
12.10.2012 20:00 11,9 C 82 % 1012,8 hPa 0,0 l/m 3,6 km/h N 8,9 C 11,9 C 12,1 km/h
12.10.2012 21:00 11,8 C 82 % 1013,1 hPa 0,0 l/m 1,9 km/h N 8,8 C 11,8 C 7,6 km/h
12.10.2012 22:00 11,6 C 83 % 1013,3 hPa 0,0 l/m 1,0 km/h N 8,8 C 11,6 C 6,8 km/h
12.10.2012 23:00 11,5 C 83 % 1013,7 hPa 0,3 l/m 0,8 km/h N 8,7 C 11,5 C 5,6 km/h
13.10.2012 00:00 11,3 C 83 % 1014,2 hPa 0,0 l/m 0,0 km/h N 8,5 C 11,3 C 0,0 km/h
13.10.2012 01:00 11,2 C 82 % 1014,3 hPa 1,0 l/m 0,0 km/h N 8,2 C 11,2 C 0,8 km/h
13.10.2012 02:00 12,0 C 80 % 1014,6 hPa 0,0 l/m 2,6 km/h N 8,6 C 12,0 C 11,6 km/h
13.10.2012 03:00 13,0 C 82 % 1014,6 hPa 0,0 l/m 9,6 km/h N 10,1 C 11,2 C 22,9 km/h
13.10.2012 04:00 13,0 C 79 % 1014,8 hPa 0,0 l/m 10,8 km/h N 9,5 C 10,5 C 27,0 km/h
13.10.2012 05:00 12,5 C 77 % 1015,4 hPa 0,0 l/m 12,0 km/h N 8,6 C 9,5 C 25,8 km/h
13.10.2012 06:00 12,0 C 77 % 1016,0 hPa 0,0 l/m 4,9 km/h N 8,0 C 11,6 C 16,1 km/h
13.10.2012 07:00 10,8 C 80 % 1016,5 hPa 0,0 l/m 2,2 km/h N 7,4 C 10,8 C 8,4 km/h
13.10.2012 08:00 10,7 C 79 % 1017,2 hPa 0,0 l/m 4,0 km/h N 7,2 C 10,7 C 12,9 km/h
13.10.2012 09:00 11,2 C 75 % 1017,6 hPa 0,0 l/m 6,6 km/h N 7,0 C 10,9 C 17,7 km/h
13.10.2012 10:00 12,3 C 68 % 1017,7 hPa 0,0 l/m 7,5 km/h N 6,6 C 11,6 C 18,1 km/h
13.10.2012 11:00 13,3 C 60 % 1017,4 hPa 0,0 l/m 6,1 km/h N 5,7 C 13,2 C 16,5 km/h
13.10.2012 12:00 14,3 C 50 % 1016,8 hPa 0,0 l/m 5,3 km/h N 4,0 C 14,3 C 14,5 km/h
13.10.2012 13:00 14,9 C 46 % 1015,7 hPa 0,0 l/m 1,5 km/h N 3,3 C 14,9 C 8,0 km/h
13.10.2012 14:00 15,1 C 47 % 1014,9 hPa 0,0 l/m 1,6 km/h N 3,7 C 15,1 C 7,6 km/h
13.10.2012 15:00 15,3 C 50 % 1014,3 hPa 0,0 l/m 0,7 km/h N 5,0 C 15,3 C 6,4 km/h
13.10.2012 16:00 14,8 C 51 % 1013,5 hPa 0,0 l/m 1,9 km/h N 4,9 C 14,8 C 8,9 km/h
13.10.2012 17:00 13,8 C 56 % 1013,0 hPa 0,0 l/m 1,5 km/h N 5,2 C 13,8 C 6,8 km/h
13.10.2012 18:00 12,4 C 62 % 1012,8 hPa 0,0 l/m 0,6 km/h N 5,3 C 12,4 C 5,6 km/h
13.10.2012 19:00 11,6 C 68 % 1012,4 hPa 0,0 l/m 0,6 km/h N 5,7 C 11,6 C 5,2 km/h
13.10.2012 20:00 10,8 C 72 % 1011,7 hPa 0,0 l/m 0,2 km/h N 6,0 C 10,8 C 4,8 km/h
13.10.2012 21:00 9,9 C 77 % 1011,1 hPa 0,0 l/m 0,1 km/h N 6,1 C 9,9 C 1,6 km/h
13.10.2012 22:00 9,2 C 80 % 1010,4 hPa 0,0 l/m 0,0 km/h N 5,9 C 9,2 C 0,0 km/h
13.10.2012 23:00 9,1 C 83 % 1009,6 hPa 0,0 l/m 0,3 km/h N 6,3 C 9,1 C 3,2 km/h
14.10.2012 00:00 9,2 C 83 % 1008,7 hPa 0,0 l/m 0,0 km/h N 6,5 C 9,2 C 1,6 km/h
14.10.2012 01:00 8,1 C 84 % 1008,1 hPa 0,0 l/m 0,0 km/h N 5,4 C 8,1 C 0,0 km/h
14.10.2012 02:00 6,9 C 83 % 1008,1 hPa 0,0 l/m 0,0 km/h N 4,2 C 6,9 C 0,0 km/h
14.10.2012 03:00 6,0 C 83 % 1008,2 hPa 0,0 l/m 0,0 km/h N 3,3 C 6,0 C 0,0 km/h
14.10.2012 04:00 5,3 C 83 % 1008,5 hPa 0,0 l/m 0,0 km/h N 2,6 C 5,3 C 0,0 km/h
14.10.2012 05:00 5,2 C 81 % 1008,8 hPa 0,0 l/m 0,1 km/h N 2,2 C 5,2 C 2,8 km/h
14.10.2012 06:00 5,3 C 81 % 1008,8 hPa 0,0 l/m 0,0 km/h N 2,3 C 5,3 C 0,8 km/h
14.10.2012 07:00 4,4 C 81 % 1009,3 hPa 0,0 l/m 0,0 km/h N 1,5 C 4,4 C 0,4 km/h
14.10.2012 08:00 4,9 C 79 % 1009,5 hPa 0,0 l/m 0,1 km/h N 1,6 C 4,9 C 2,4 km/h
14.10.2012 09:00 8,6 C 75 % 1009,6 hPa 0,0 l/m 1,0 km/h N 4,5 C 8,6 C 3,6 km/h
14.10.2012 10:00 11,8 C 80 % 1009,2 hPa 0,0 l/m 1,0 km/h N 8,3 C 11,8 C 6,4 km/h
14.10.2012 11:00 15,3 C 71 % 1008,4 hPa 0,0 l/m 1,3 km/h N 10,0 C 15,3 C 7,6 km/h
14.10.2012 12:00 17,1 C 59 % 1007,7 hPa 0,0 l/m 1,9 km/h N 9,1 C 17,1 C 9,3 km/h
14.10.2012 13:00 16,8 C 59 % 1007,0 hPa 0,0 l/m 3,9 km/h N 8,7 C 16,8 C 14,1 km/h
14.10.2012 14:00 17,5 C 54 % 1006,2 hPa 0,0 l/m 5,0 km/h N 8,0 C 17,5 C 16,5 km/h
14.10.2012 15:00 17,1 C 57 % 1005,7 hPa 0,0 l/m 5,3 km/h N 8,4 C 17,1 C 18,5 km/h
14.10.2012 16:00 16,3 C 55 % 1005,0 hPa 0,0 l/m 5,3 km/h N 7,1 C 16,3 C 20,5 km/h
14.10.2012 17:00 15,3 C 65 % 1004,8 hPa 0,0 l/m 9,5 km/h N 8,7 C 13,7 C 23,7 km/h
14.10.2012 18:00 13,4 C 72 % 1004,6 hPa 0,0 l/m 6,6 km/h N 8,5 C 12,9 C 18,1 km/h
14.10.2012 19:00 11,5 C 78 % 1004,3 hPa 0,0 l/m 6,0 km/h N 7,9 C 11,1 C 16,9 km/h
14.10.2012 20:00 11,2 C 80 % 1003,9 hPa 0,0 l/m 7,3 km/h N 7,8 C 10,6 C 20,9 km/h
14.10.2012 21:00 11,6 C 82 % 1003,3 hPa 0,0 l/m 7,5 km/h N 8,6 C 10,8 C 20,5 km/h
14.10.2012 22:00 12,1 C 83 % 1002,9 hPa 0,0 l/m 8,6 km/h N 9,3 C 10,7 C 21,7 km/h
14.10.2012 23:00 12,4 C 83 % 1002,4 hPa 0,0 l/m 7,3 km/h N 9,6 C 11,8 C 18,5 km/h
Min-Datum _ 12.10.12 13.10.12 14.10.12 - 08.10.12 - 14.10.12 12.10.12 08.10.12
_ Min-Zeit 02:15 14:15 23:30 - 18:00 - 07:45 02:00 18:00
Minimum _ 4,0 C 41 % 1002,2 hPa - 0,0 km/h - 1,1 C 4,0 C 0,0 km/h
Max-Datum _ 14.10.12 08.10.12 08.10.12 13.10.12 13.10.12 - 09.10.12 14.10.12 13.10.12
_ Max-Zeit 12:45 23:15 09:30 01:00 05:15 - 20:15 12:30 04:00
Maximum _ 17,8 C 84 % 1022,3 hPa 1,0 l/m 12,7 km/h
N
- 10,4 C 17,6 C 30,6 km/h
N
Durchschnitt _ 10,2 C 73 % 1013,5 hPa #1,3 l/m 2,5 km/h N 5,3 C 10,0 C 8,2 km/h